CheckWX is a tool to help pilots better visualize weather data.  It is not intended as a substitute for an official pre-flight weather briefing.

11:21:43 UTC

KAEX TAF
Alexandria International Airport
Alexandria, Louisiana, USA
KAEX 240520Z 2406/2506 17010KT P6SM VCTS BKN019CB OVC029 TEMPO 2407/2411 VRB13G20KT 3SM TSRA BR OVC025CB FM241100 20008KT P6SM VCSH SCT028 OVC040 TEMPO 2411/2415 5SM -TSRA FEW022 BKN030CB FM241500 20009KT P6SM VCSH FEW017 OVC025 TEMPO 2416/2420 4SM -TSRA SCT022 BKN030CB

Jun-24@
06:00 UTC

Jun-24 @ 06:00 UTC

Jun-24@
11:00 UTC

Jun-24 @ 11:00 UTC

KAEX 240520Z 2406/2506 17010KT P6SM VCTS BKN019CB OVC029

Expired

Wind
  • 170° at 10 KTS
Conditions
Area Thunderstorm
Cloud Levels
  • Broken at 1,900' AGL
  • Overcast at 2,900' AGL

Jun-24@
07:00 UTC

Jun-24 @ 07:00 UTC

Jun-24@
11:00 UTC

Jun-24 @ 11:00 UTC

TEMPO 2407/2411 VRB13G20KT 3SM TSRA BR OVC025CB

Expired

Wind
  • Variable at 13 KTS
  • {Gusting to 20 KTS
Conditions
Thunderstorm, Rain, Mist
Cloud Levels
  • Overcast at 2,500' AGL

Jun-24@
11:00 UTC

Jun-24 @ 11:00 UTC

Jun-24@
15:00 UTC

Jun-24 @ 15:00 UTC

FM241100 20008KT P6SM VCSH SCT028 OVC040

From

From Standard forecast or significant change

Wind
  • 200° at 8 KTS
Cloud Levels
  • Scattered at 2,800' AGL
  • Overcast at 4,000' AGL

Jun-24@
11:00 UTC

Jun-24 @ 11:00 UTC

Jun-24@
15:00 UTC

Jun-24 @ 15:00 UTC

TEMPO 2411/2415 5SM -TSRA FEW022 BKN030CB

Temporary

Temporary Changes expected for less than half the time period

Conditions
Light Thunderstorm, Light Rain
Cloud Levels
  • Few at 2,200' AGL
  • Broken at 3,000' AGL

Jun-24@
15:00 UTC

Jun-24 @ 15:00 UTC

Jun-25@
06:00 UTC

Jun-25 @ 06:00 UTC

FM241500 20009KT P6SM VCSH FEW017 OVC025

From

From Standard forecast or significant change

Wind
  • 200° at 9 KTS
Cloud Levels
  • Few at 1,700' AGL
  • Overcast at 2,500' AGL

Jun-24@
16:00 UTC

Jun-24 @ 16:00 UTC

Jun-24@
20:00 UTC

Jun-24 @ 20:00 UTC

TEMPO 2416/2420 4SM -TSRA SCT022 BKN030CB

Temporary

Temporary Changes expected for less than half the time period

Conditions
Light Thunderstorm, Light Rain
Cloud Levels
  • Scattered at 2,200' AGL
  • Broken at 3,000' AGL